Saboeiro, Brazil
Current Conditions -  °F | °C
As of 2:00 PM on Thursday 18 Dec 2014 (Local Time) from SBJU Reporting Station
Broken Clouds Broken Clouds  
Wind Chill: 84°   Ceiling: 8000
Heat Index: 92°   Visibility: 6mi
Dew Point: 75°   Wind: 5mph
Humidity: 74%   Direction: 140°SE
Pressure: 29.97"   Gusts: NA
Location:  6.54°S, 39.91°W
Report Text: SBJU 181700Z 14004KT 9999 SCT020 BKN080 29/24 Q1015
Loading
Personal Weather Stations






























Interactive Weather Map New forecast layout! Learn more

10-Day Weather Forecast

Advertisements
Track Severe Weather on mobile